Time;durP1;ratioP1;P1;durP2;ratioP2;P2;SDS_P1;SDS_P2;PMS_P1;PMS_P2;Temp;Humidity;BMP_temperature;BMP_pressure;BME280_temperature;BME280_humidity;BME280_pressure;Samples;Min_cycle;Max_cycle;Signal;HPM_P1;HPM_P2
2023/01/08 00:00:46;;;;;;;48.33;27.55;;;;;;;-1.22;100.00;93592.28;5091682;28;20052;-70
2023/01/08 00:03:13;;;;;;;46.13;26.95;;;;;;;-1.19;100.00;93587.00;5091867;28;20044;-71
2023/01/08 00:05:39;;;;;;;44.25;25.92;;;;;;;-1.18;100.00;93596.16;5091944;28;20532;-72
2023/01/08 00:08:07;;;;;;;45.70;27.15;;;;;;;-1.23;100.00;93590.69;5091499;28;20044;-70
2023/01/08 00:10:34;;;;;;;43.75;26.90;;;;;;;-1.24;100.00;93597.44;5091626;28;20128;-70
2023/01/08 00:13:01;;;;;;;44.63;26.48;;;;;;;-1.30;100.00;93592.16;5091806;28;20040;-70
2023/01/08 00:15:29;;;;;;;76.90;42.80;;;;;;;-1.32;100.00;93596.50;5091708;28;20036;-69
2023/01/08 00:17:57;;;;;;;87.25;49.78;;;;;;;-1.46;100.00;93588.38;5091646;28;20050;-70
2023/01/08 00:20:24;;;;;;;61.60;35.03;;;;;;;-1.40;100.00;93600.47;5091702;28;20440;-70
2023/01/08 00:22:51;;;;;;;58.97;34.25;;;;;;;-1.66;100.00;93559.78;5091605;28;20052;-70
2023/01/08 00:25:19;;;;;;;40.28;23.67;;;;;;;-1.42;100.00;93601.50;5091478;28;20105;-70
2023/01/08 00:27:45;;;;;;;36.53;21.90;;;;;;;-1.49;100.00;93604.53;5091152;28;20043;-70
2023/01/08 00:30:13;;;;;;;34.45;19.75;;;;;;;-1.50;100.00;93609.69;5091561;28;20051;-71
2023/01/08 00:32:40;;;;;;;29.27;18.52;;;;;;;-1.78;100.00;93572.47;5091346;28;20055;-70
2023/01/08 00:35:08;;;;;;;29.98;18.23;;;;;;;-1.62;100.00;93597.19;5090986;28;20557;-71
2023/01/08 00:37:35;;;;;;;25.08;16.60;;;;;;;-1.58;100.00;93604.50;5091354;28;20055;-71
2023/01/08 00:40:02;;;;;;;22.65;14.30;;;;;;;-1.61;100.00;93601.28;5091084;28;20549;-71
2023/01/08 00:42:29;;;;;;;20.58;14.32;;;;;;;-1.63;100.00;93598.09;5091393;28;20044;-72
2023/01/08 00:44:55;;;;;;;23.33;13.98;;;;;;;-1.65;100.00;93594.13;5090924;28;21066;-71
2023/01/08 00:47:22;;;;;;;27.73;17.13;;;;;;;-1.65;100.00;93594.13;5090243;28;20055;-70
2023/01/08 00:49:49;;;;;;;35.80;20.00;;;;;;;-1.67;100.00;93598.50;5091080;28;20117;-70
2023/01/08 00:52:18;;;;;;;27.55;16.50;;;;;;;-1.68;100.00;93601.91;5090841;28;20052;-71
2023/01/08 00:54:45;;;;;;;24.08;14.65;;;;;;;-1.68;100.00;93600.19;5090420;28;20093;-71
2023/01/08 00:57:12;;;;;;;24.63;15.27;;;;;;;-1.69;100.00;93595.28;5090925;28;20093;-70
2023/01/08 00:59:38;;;;;;;27.27;14.80;;;;;;;-1.76;100.00;93593.28;5090627;28;20090;-71
2023/01/08 01:02:05;;;;;;;18.40;11.18;;;;;;;-1.73;100.00;93597.25;5090735;28;20044;-71
2023/01/08 01:04:32;;;;;;;32.15;17.35;;;;;;;-1.79;100.00;93595.25;5090872;28;20043;-71
2023/01/08 01:06:58;;;;;;;25.02;15.30;;;;;;;-1.76;100.00;93598.31;5090590;28;20044;-70
2023/01/08 01:09:27;;;;;;;29.08;17.17;;;;;;;-1.78;100.00;93596.84;5090374;28;20552;-71
2023/01/08 01:11:53;;;;;;;28.52;17.70;;;;;;;-1.78;100.00;93600.16;5090262;28;20497;-71
2023/01/08 01:14:20;;;;;;;30.80;18.40;;;;;;;-1.78;100.00;93596.84;5090370;28;20044;-71
2023/01/08 01:16:47;;;;;;;31.33;17.50;;;;;;;-1.83;100.00;93589.66;5090189;28;20189;-70
2023/01/08 01:19:14;;;;;;;35.33;19.45;;;;;;;-1.82;100.00;93598.00;5090607;28;20048;-71
2023/01/08 01:21:41;;;;;;;39.55;23.17;;;;;;;-1.94;100.00;93587.22;5090518;28;20442;-71
2023/01/08 01:24:11;;;;;;;44.55;24.73;;;;;;;-1.91;100.00;93604.56;5090058;28;20504;-70
2023/01/08 01:26:39;;;;;;;39.78;23.13;;;;;;;-1.86;100.00;93594.94;5090153;28;20462;-71
2023/01/08 01:29:06;;;;;;;38.38;22.50;;;;;;;-1.88;100.00;93592.56;5090209;28;20059;-71
2023/01/08 01:31:36;;;;;;;35.15;21.27;;;;;;;-1.88;100.00;93595.06;5090242;28;20098;-72
2023/01/08 01:34:02;;;;;;;30.30;19.13;;;;;;;-1.92;100.00;93586.16;5090080;28;20048;-71
2023/01/08 01:36:29;;;;;;;29.15;18.38;;;;;;;-1.93;100.00;93597.16;5089894;28;20052;-71
2023/01/08 01:38:59;;;;;;;34.47;20.60;;;;;;;-1.95;100.00;93586.41;5090188;28;20094;-71
2023/01/08 01:41:28;;;;;;;35.78;20.75;;;;;;;-1.99;100.00;93585.03;5090116;28;20157;-71
2023/01/08 01:43:59;;;;;;;33.75;20.13;;;;;;;-1.99;100.00;93586.78;5090622;28;20105;-71
2023/01/08 01:46:36;;;;;;;29.80;18.75;;;;;;;-2.03;100.00;93593.78;5090642;28;20040;-71
2023/01/08 01:49:08;;;;;;;24.42;15.50;;;;;;;-2.04;100.00;93584.66;5089737;28;20052;-71
2023/01/08 01:51:42;;;;;;;26.13;14.93;;;;;;;-2.06;100.00;93591.50;5089995;28;20044;-72
2023/01/08 01:54:12;;;;;;;18.80;11.55;;;;;;;-2.13;100.00;93583.63;5089755;28;20060;-70
2023/01/08 01:56:39;;;;;;;21.23;12.02;;;;;;;-2.18;100.00;93584.00;5089417;28;20047;-71
2023/01/08 01:59:08;;;;;;;24.25;15.02;;;;;;;-2.22;100.00;93582.66;5088649;28;20048;-71
2023/01/08 02:01:35;;;;;;;25.05;15.65;;;;;;;-2.24;100.00;93579.47;5089510;28;20036;-72
2023/01/08 02:04:01;;;;;;;27.02;13.95;;;;;;;-2.26;100.00;93581.31;5086816;28;20048;-72
2023/01/08 02:06:37;;;;;;;18.58;11.00;;;;;;;-2.26;100.00;93578.81;5089168;28;20093;-72
2023/01/08 02:09:09;;;;;;;13.80;8.90;;;;;;;-2.35;100.00;93574.50;5089516;28;20062;-71
2023/01/08 02:11:46;;;;;;;17.27;10.90;;;;;;;-2.30;100.00;93572.41;5089527;28;20105;-72
2023/01/08 02:14:22;;;;;;;22.15;12.90;;;;;;;-2.28;100.00;93578.13;5089524;28;20052;-71
2023/01/08 02:16:57;;;;;;;18.38;11.48;;;;;;;-2.29;100.00;93576.53;5089815;28;20089;-70
2023/01/08 02:19:36;;;;;;;20.35;11.68;;;;;;;-2.31;100.00;93575.84;5089169;28;20093;-71
2023/01/08 02:22:14;;;;;;;20.30;12.20;;;;;;;-2.32;100.00;93571.75;5089427;28;20124;-70
2023/01/08 02:24:52;;;;;;;22.35;13.10;;;;;;;-2.46;100.00;93550.19;5089307;28;20036;-70
2023/01/08 02:27:24;;;;;;;19.80;11.95;;;;;;;-2.35;100.00;93567.75;5088962;28;20070;-70
2023/01/08 02:29:53;;;;;;;19.30;11.82;;;;;;;-2.44;100.00;93558.41;5089092;28;20089;-70
2023/01/08 02:32:26;;;;;;;21.38;12.73;;;;;;;-2.38;100.00;93562.16;5089136;28;20040;-71
2023/01/08 02:34:53;;;;;;;24.13;15.82;;;;;;;-2.39;100.00;93563.88;5089044;28;20047;-70
2023/01/08 02:37:23;;;;;;;30.30;18.45;;;;;;;-2.40;100.00;93557.25;5088873;28;20040;-71
2023/01/08 02:40:05;;;;;;;33.92;21.10;;;;;;;-2.50;100.00;93549.63;5088766;28;20105;-71
2023/01/08 02:42:42;;;;;;;31.92;19.90;;;;;;;-2.42;100.00;93552.34;5089125;28;20105;-72
2023/01/08 02:45:21;;;;;;;30.85;19.77;;;;;;;-2.38;100.00;93552.09;5088999;28;20052;-72
2023/01/08 02:47:55;;;;;;;27.42;17.73;;;;;;;-2.40;100.00;93551.41;5088530;28;20044;-71
2023/01/08 02:50:25;;;;;;;32.70;19.73;;;;;;;-2.45;100.00;93545.03;5088621;28;20040;-71
2023/01/08 02:53:09;;;;;;;29.42;18.55;;;;;;;-2.46;100.00;93547.69;5088983;28;20117;-71
2023/01/08 02:55:39;;;;;;;30.70;17.05;;;;;;;-2.53;100.00;93536.50;5088742;28;20105;-71
2023/01/08 02:58:07;;;;;;;25.67;14.13;;;;;;;-2.48;100.00;93557.06;5088470;28;20121;-72
2023/01/08 03:00:35;;;;;;;24.30;14.13;;;;;;;-2.52;100.00;93555.69;5088571;28;20040;-71
2023/01/08 03:03:09;;;;;;;21.30;13.43;;;;;;;-2.69;100.00;93541.03;5088880;28;20105;-72
2023/01/08 03:05:38;;;;;;;18.40;12.23;;;;;;;-2.80;100.00;93530.19;5088516;28;20036;-71
2023/01/08 03:08:05;;;;;;;22.40;14.63;;;;;;;-2.64;100.00;93558.25;5088433;28;20052;-71
2023/01/08 03:10:32;;;;;;;22.70;13.82;;;;;;;-2.67;100.00;93561.03;5091838;28;20040;-72
2023/01/08 03:13:04;;;;;;;25.88;14.27;;;;;;;-2.70;100.00;93557.03;5095659;28;20039;-71
2023/01/08 03:15:40;;;;;;;25.92;16.20;;;;;;;-2.73;100.00;93564.03;5095796;28;20102;-71
2023/01/08 03:18:13;;;;;;;28.92;18.35;;;;;;;-2.85;100.00;93538.09;5095674;28;20044;-71
2023/01/08 03:20:40;;;;;;;25.98;17.58;;;;;;;-2.73;100.00;93559.00;5095821;28;20104;-71
2023/01/08 03:23:10;;;;;;;23.83;15.90;;;;;;;-2.71;100.00;93562.97;5095565;28;20044;-71
2023/01/08 03:25:41;;;;;;;25.60;16.38;;;;;;;-2.84;100.00;93555.59;5095463;28;20043;-71
2023/01/08 03:28:13;;;;;;;28.05;17.05;;;;;;;-2.71;100.00;93573.03;5095243;28;20048;-71
2023/01/08 03:30:43;;;;;;;31.67;17.85;;;;;;;-2.72;100.00;93568.91;5095509;28;20051;-71
2023/01/08 03:33:11;;;;;;;35.50;20.55;;;;;;;-2.74;100.00;93565.72;5095353;28;20453;-71
2023/01/08 03:35:40;;;;;;;25.40;16.00;;;;;;;-2.78;100.00;93556.81;5095758;28;20050;-72
2023/01/08 03:38:12;;;;;;;32.28;17.60;;;;;;;-2.80;100.00;93560.38;5082388;28;20095;-71
2023/01/08 03:40:43;;;;;;;27.73;16.52;;;;;;;-2.81;100.00;93562.09;5095195;28;20048;-71
2023/01/08 03:43:10;;;;;;;28.05;16.02;;;;;;;-2.85;100.00;93568.28;5095778;28;20048;-71
2023/01/08 03:45:38;;;;;;;21.98;13.13;;;;;;;-2.88;100.00;93564.28;5095311;28;20040;-71
2023/01/08 03:48:08;;;;;;;21.65;13.63;;;;;;;-2.92;100.00;93567.16;5095512;28;20077;-71
2023/01/08 03:50:34;;;;;;;21.60;13.30;;;;;;;-2.90;100.00;93561.09;5095498;28;20048;-71
2023/01/08 03:53:01;;;;;;;18.98;12.85;;;;;;;-2.90;100.00;93561.09;5095843;28;20044;-71
2023/01/08 03:55:28;;;;;;;17.65;11.93;;;;;;;-2.89;100.00;93564.41;5095059;28;20068;-71
2023/01/08 03:57:55;;;;;;;18.50;12.40;;;;;;;-2.90;100.00;93562.81;5095609;28;20101;-71
2023/01/08 04:00:21;;;;;;;19.10;10.45;;;;;;;-2.91;100.00;93562.03;5095051;28;20443;-71
2023/01/08 04:02:48;;;;;;;17.50;9.50;;;;;;;-2.97;100.00;93564.97;5095245;28;20089;-71
2023/01/08 04:05:16;;;;;;;16.58;10.07;;;;;;;-2.99;100.00;93564.31;5095179;28;20041;-72
2023/01/08 04:07:43;;;;;;;16.83;9.70;;;;;;;-3.01;100.00;93566.94;5095381;28;20043;-72
2023/01/08 04:10:10;;;;;;;16.25;10.32;;;;;;;-2.98;100.00;93571.75;5095411;28;20056;-72
2023/01/08 04:12:37;;;;;;;17.25;10.77;;;;;;;-3.02;100.00;93565.34;5095454;28;20463;-72
2023/01/08 04:15:04;;;;;;;20.40;12.88;;;;;;;-3.02;100.00;93564.56;5094940;28;20628;-72
2023/01/08 04:17:31;;;;;;;18.08;11.98;;;;;;;-2.98;100.00;93568.41;5095157;28;20097;-72
2023/01/08 04:19:58;;;;;;;20.50;13.02;;;;;;;-2.96;100.00;93567.38;5095059;28;20450;-72
2023/01/08 04:22:26;;;;;;;24.65;13.88;;;;;;;-2.99;100.00;93565.13;5091975;28;20051;-72
2023/01/08 04:24:52;;;;;;;24.77;14.82;;;;;;;-2.97;100.00;93559.97;5092016;28;20040;-72
2023/01/08 04:27:19;;;;;;;21.17;13.98;;;;;;;-2.90;100.00;93560.28;5091944;28;20055;-72
2023/01/08 04:29:46;;;;;;;20.15;12.55;;;;;;;-2.93;100.00;93558.03;5091797;28;20044;-72
2023/01/08 04:32:12;;;;;;;21.80;13.98;;;;;;;-2.88;100.00;93559.25;5091968;28;20052;-72
2023/01/08 04:34:39;;;;;;;21.63;12.50;;;;;;;-2.90;100.00;93560.28;5091850;28;20101;-72
2023/01/08 04:37:06;;;;;;;20.90;12.60;;;;;;;-3.13;100.00;93515.94;5091527;28;20534;-72
2023/01/08 04:39:34;;;;;;;22.38;13.02;;;;;;;-2.90;100.00;93558.59;5091947;28;20090;-72
2023/01/08 04:42:01;;;;;;;21.92;12.13;;;;;;;-2.95;100.00;93548.88;5091653;28;20169;-72
2023/01/08 04:44:28;;;;;;;19.23;12.60;;;;;;;-2.94;100.00;93557.22;5091368;28;20491;-72
2023/01/08 04:46:54;;;;;;;23.33;11.45;;;;;;;-3.01;100.00;93561.91;5091443;28;20056;-72
2023/01/08 04:49:21;;;;;;;24.13;11.98;;;;;;;-3.02;100.00;93562.06;5091722;28;20465;-72
2023/01/08 04:51:48;;;;;;;25.55;13.20;;;;;;;-3.06;100.00;93553.16;5090301;28;20048;-72
2023/01/08 04:54:15;;;;;;;17.60;12.32;;;;;;;-3.11;100.00;93563.53;5091091;28;20040;-72
2023/01/08 04:56:43;;;;;;;26.77;15.43;;;;;;;-3.18;100.00;93559.91;5088128;28;20059;-73
2023/01/08 04:59:10;;;;;;;25.17;14.32;;;;;;;-3.19;100.00;93559.13;5091170;28;20052;-72
2023/01/08 05:01:36;;;;;;;20.77;13.07;;;;;;;-3.18;100.00;93562.41;5088704;28;20036;-73
2023/01/08 05:04:05;;;;;;;20.98;12.77;;;;;;;-3.19;100.00;93565.84;5091436;28;20113;-72
2023/01/08 05:06:32;;;;;;;24.63;14.75;;;;;;;-3.29;100.00;93550.69;5088336;28;20048;-72
2023/01/08 05:08:59;;;;;;;23.13;14.70;;;;;;;-3.19;100.00;93564.13;5091094;28;20081;-72
2023/01/08 05:11:26;;;;;;;20.60;14.57;;;;;;;-3.26;100.00;93556.25;5088297;28;20097;-73
2023/01/08 05:13:55;;;;;;;24.23;15.38;;;;;;;-3.20;100.00;93561.75;5091135;28;20070;-73
2023/01/08 05:16:22;;;;;;;24.60;15.65;;;;;;;-3.24;100.00;93558.66;5088336;28;20420;-73
2023/01/08 05:18:49;;;;;;;29.15;18.33;;;;;;;-3.23;100.00;93567.78;5091034;28;20112;-73
2023/01/08 05:21:17;;;;;;;33.40;19.52;;;;;;;-3.26;100.00;93561.28;5091013;28;20084;-73
2023/01/08 05:23:45;;;;;;;38.55;22.35;;;;;;;-3.34;100.00;93537.66;5087311;28;20094;-72
2023/01/08 05:26:12;;;;;;;31.85;21.10;;;;;;;-3.23;100.00;93552.72;5078762;28;20040;-72
2023/01/08 05:28:39;;;;;;;38.45;22.73;;;;;;;-3.28;100.00;93552.28;5089907;28;20396;-73
2023/01/08 05:31:07;;;;;;;33.55;19.45;;;;;;;-3.38;100.00;93542.91;5090447;28;20101;-72
2023/01/08 05:33:33;;;;;;;37.38;22.13;;;;;;;-3.32;100.00;93561.75;5090177;28;20040;-72
2023/01/08 05:36:00;;;;;;;37.65;21.08;;;;;;;-3.32;100.00;93558.44;5090810;28;20048;-72
2023/01/08 05:38:27;;;;;;;33.03;20.67;;;;;;;-3.32;100.00;93561.75;5089154;28;20040;-72
2023/01/08 05:40:54;;;;;;;39.58;22.70;;;;;;;-3.31;100.00;93555.00;5087664;28;20040;-72
2023/01/08 05:43:20;;;;;;;40.80;24.25;;;;;;;-3.33;100.00;93561.88;5090544;28;20044;-72
2023/01/08 05:45:47;;;;;;;45.78;23.52;;;;;;;-3.36;100.00;93560.38;5090035;28;20068;-73
2023/01/08 05:48:16;;;;;;;35.10;19.52;;;;;;;-3.39;100.00;93556.38;5090266;28;20101;-71
2023/01/08 05:50:42;;;;;;;34.42;20.38;;;;;;;-3.39;100.00;93553.88;5088141;28;20092;-72
2023/01/08 05:53:09;;;;;;;29.83;18.05;;;;;;;-3.39;100.00;93556.38;5089647;28;20097;-71
2023/01/08 05:55:36;;;;;;;31.55;16.95;;;;;;;-3.38;100.00;93555.47;5090248;28;20094;-72
2023/01/08 05:58:04;;;;;;;34.67;18.23;;;;;;;-3.42;100.00;93561.63;5078185;28;20053;-72
2023/01/08 06:00:31;;;;;;;35.17;19.60;;;;;;;-3.47;100.00;93551.16;5089449;28;20040;-72
2023/01/08 06:02:58;;;;;;;59.45;35.83;;;;;;;-3.52;100.00;93555.72;5089947;28;20499;-72
2023/01/08 06:05:26;;;;;;;57.10;32.47;;;;;;;-3.57;100.00;93547.75;5090025;28;20451;-72
2023/01/08 06:07:53;;;;;;;65.18;36.00;;;;;;;-3.54;100.00;93550.00;5090075;28;20094;-72
2023/01/08 06:10:20;;;;;;;51.63;28.55;;;;;;;-3.54;100.00;93548.31;5076589;28;20048;-72
2023/01/08 06:12:46;;;;;;;63.00;37.90;;;;;;;-3.49;100.00;93553.78;5089550;28;20044;-72
2023/01/08 06:15:13;;;;;;;56.95;35.08;;;;;;;-3.54;100.00;93558.34;5089937;28;20048;-72
2023/01/08 06:17:40;;;;;;;50.47;30.75;;;;;;;-3.61;100.00;93557.22;5089899;28;20458;-71
2023/01/08 06:20:08;;;;;;;78.43;48.42;;;;;;;-3.58;100.00;93562.00;5089710;28;20052;-72
2023/01/08 06:22:36;;;;;;;87.60;53.28;;;;;;;-3.55;100.00;93556.75;5089571;28;20558;-71
2023/01/08 06:25:03;;;;;;;67.70;42.72;;;;;;;-3.48;100.00;93559.59;5089574;28;20148;-72
2023/01/08 06:27:30;;;;;;;78.63;48.17;;;;;;;-3.44;100.00;93560.97;5089427;28;20496;-71
2023/01/08 06:29:57;;;;;;;90.07;55.72;;;;;;;-3.39;100.00;93568.13;5086852;28;20048;-71
2023/01/08 06:32:23;;;;;;;101.47;56.20;;;;;;;-3.37;100.00;93567.09;5089271;28;20097;-71
2023/01/08 06:34:50;;;;;;;92.13;53.78;;;;;;;-3.33;100.00;93574.44;5089619;28;20044;-71
2023/01/08 06:37:17;;;;;;;83.63;51.80;;;;;;;-3.37;100.00;93556.28;5089323;28;20562;-72
2023/01/08 06:39:45;;;;;;;81.63;48.80;;;;;;;-3.22;100.00;93577.75;5087329;28;20140;-72
2023/01/08 06:42:11;;;;;;;78.25;50.38;;;;;;;-3.17;100.00;93581.59;5086660;28;20121;-71
2023/01/08 06:44:38;;;;;;;70.20;43.85;;;;;;;-3.11;100.00;93586.16;5088214;28;20051;-72
2023/01/08 06:47:05;;;;;;;87.53;51.05;;;;;;;-3.05;100.00;93583.19;5088944;28;20052;-72
2023/01/08 06:49:32;;;;;;;84.35;51.55;;;;;;;-3.03;100.00;93581.34;5089225;28;20093;-72
2023/01/08 06:51:58;;;;;;;93.68;52.03;;;;;;;-3.01;100.00;93589.56;5089139;28;20048;-72
2023/01/08 06:54:25;;;;;;;107.60;64.05;;;;;;;-2.96;100.00;93584.19;5089071;28;20048;-72
2023/01/08 06:56:53;;;;;;;104.32;62.67;;;;;;;-2.95;100.00;93580.75;5089083;28;20048;-72
2023/01/08 06:59:20;;;;;;;108.85;63.92;;;;;;;-2.85;100.00;93583.38;5089340;28;20522;-72
2023/01/08 07:01:47;;;;;;;94.55;55.30;;;;;;;-2.84;100.00;93595.00;5088974;28;20040;-72
2023/01/08 07:04:13;;;;;;;97.32;57.70;;;;;;;-2.79;100.00;93589.66;5089353;28;20051;-72
2023/01/08 07:06:40;;;;;;;95.65;57.15;;;;;;;-2.68;100.00;93592.13;5089081;28;20105;-72
2023/01/08 07:09:07;;;;;;;98.35;60.03;;;;;;;-2.69;100.00;93593.81;5088509;28;20056;-73
2023/01/08 07:11:33;;;;;;;103.13;60.10;;;;;;;-2.73;100.00;93581.63;5089104;28;20044;-72
2023/01/08 07:14:01;;;;;;;100.40;60.53;;;;;;;-2.56;100.00;93590.34;5085415;28;20048;-72
2023/01/08 07:16:28;;;;;;;98.28;57.45;;;;;;;-2.42;100.00;93606.88;5079266;28;20572;-73
2023/01/08 07:18:55;;;;;;;92.93;57.13;;;;;;;-2.69;100.00;93595.53;5088964;28;20040;-73
2023/01/08 07:21:22;;;;;;;110.07;61.88;;;;;;;-2.85;100.00;93586.69;5088791;28;20537;-72
2023/01/08 07:23:49;;;;;;;105.57;60.00;;;;;;;-2.60;100.00;93594.03;5088982;28;20044;-72
2023/01/08 07:26:15;;;;;;;118.90;67.28;;;;;;;-2.55;100.00;93581.88;5088681;28;20545;-72
2023/01/08 07:28:43;;;;;;;149.35;81.10;;;;;;;-2.48;100.00;93600.63;5088687;28;20093;-72
2023/01/08 07:31:11;;;;;;;154.07;82.53;;;;;;;-2.58;100.00;93607.28;5088863;28;20044;-71
2023/01/08 07:33:38;;;;;;;160.95;85.90;;;;;;;-2.83;100.00;93604.94;5088949;28;20044;-72
2023/01/08 07:36:05;;;;;;;162.32;82.97;;;;;;;-2.88;100.00;93594.44;5088764;28;20439;-72
2023/01/08 07:38:32;;;;;;;155.27;83.53;;;;;;;-2.81;100.00;93607.34;5088580;28;20048;-72
2023/01/08 07:40:59;;;;;;;156.68;82.20;;;;;;;-2.81;100.00;93602.31;5088780;28;20048;-72
2023/01/08 07:43:28;;;;;;;150.10;84.60;;;;;;;-2.51;100.00;93600.84;5088695;28;20447;-72
2023/01/08 07:45:55;;;;;;;152.95;85.15;;;;;;;-2.19;100.00;93602.56;5086052;28;20071;-72
2023/01/08 07:48:23;;;;;;;140.73;76.10;;;;;;;-1.96;100.00;93604.94;5088920;28;20454;-72
2023/01/08 07:50:50;;;;;;;157.77;81.57;;;;;;;-1.75;100.00;93599.91;5086816;28;20121;-72
2023/01/08 07:53:17;;;;;;;149.80;81.13;;;;;;;-1.51;100.00;93600.53;5072998;28;20569;-72
2023/01/08 07:55:43;;;;;;;159.32;83.95;;;;;;;-1.33;100.00;93599.94;5087126;28;20411;-70
2023/01/08 07:58:12;;;;;;;150.38;77.78;;;;;;;-1.21;100.00;93602.25;5091240;28;20052;-70
2023/01/08 08:00:39;;;;;;;151.88;80.00;;;;;;;-1.14;100.00;93605.06;5092173;28;20550;-70
2023/01/08 08:03:10;;;;;;;155.95;78.50;;;;;;;-1.19;100.00;93592.03;5091895;28;20542;-70
2023/01/08 08:05:38;;;;;;;132.70;72.70;;;;;;;-1.11;100.00;93591.41;5086161;28;20048;-71
2023/01/08 08:08:09;;;;;;;139.63;73.30;;;;;;;-0.94;100.00;93605.09;5084831;28;20056;-70
2023/01/08 08:10:36;;;;;;;141.32;72.40;;;;;;;-0.85;100.00;93606.03;5089511;28;20071;-70
2023/01/08 08:13:03;;;;;;;134.57;76.15;;;;;;;-0.75;100.00;93613.66;5092086;28;20048;-70
2023/01/08 08:15:30;;;;;;;124.82;67.35;;;;;;;-0.70;100.00;93607.28;5092286;28;20055;-70
2023/01/08 08:17:56;;;;;;;116.25;65.55;;;;;;;-0.57;100.00;93593.59;5092118;28;20044;-70
2023/01/08 08:20:23;;;;;;;116.60;61.85;;;;;;;-0.57;100.00;93601.97;5092085;28;20052;-70
2023/01/08 08:22:51;;;;;;;113.82;61.53;;;;;;;-0.54;100.00;93606.75;5078424;28;20040;-70
2023/01/08 08:25:18;;;;;;;115.90;59.97;;;;;;;-0.65;100.00;93589.22;5091861;28;20047;-70
2023/01/08 08:27:45;;;;;;;123.60;65.05;;;;;;;-0.60;100.00;93597.19;5091661;28;20040;-69
2023/01/08 08:30:13;;;;;;;137.18;69.15;;;;;;;-0.55;100.00;93584.19;5091581;28;20086;-70
2023/01/08 08:32:40;;;;;;;145.20;70.35;;;;;;;-0.38;100.00;93597.09;5092004;28;20393;-69
2023/01/08 08:35:07;;;;;;;207.75;88.93;;;;;;;-0.37;100.00;93601.97;5091799;28;20097;-69
2023/01/08 08:37:34;;;;;;;158.23;75.75;;;;;;;-0.20;100.00;93597.19;5091904;28;20108;-69
2023/01/08 08:40:02;;;;;;;153.15;72.00;;;;;;;-0.14;100.00;93604.22;5091184;28;20561;-69
2023/01/08 08:42:29;;;;;;;116.88;57.10;;;;;;;-0.05;100.00;93603.44;5091457;28;20040;-69
2023/01/08 08:44:55;;;;;;;125.75;58.95;;;;;;;-0.25;100.00;93562.25;5091425;28;20442;-69
2023/01/08 08:47:22;;;;;;;107.90;54.85;;;;;;;0.11;100.00;93595.31;5091462;28;20040;-69
2023/01/08 08:49:49;;;;;;;105.88;55.55;;;;;;;0.29;100.00;93591.28;5091006;28;20117;-70
2023/01/08 08:52:15;;;;;;;103.80;51.60;;;;;;;0.48;100.00;93588.72;5091473;28;20109;-69
2023/01/08 08:54:42;;;;;;;77.20;40.85;;;;;;;0.60;100.00;93586.78;5091324;28;20420;-69
2023/01/08 08:57:10;;;;;;;87.45;43.42;;;;;;;0.69;100.00;93591.94;5091249;28;20093;-69
2023/01/08 08:59:39;;;;;;;83.45;44.03;;;;;;;0.70;100.00;93586.75;5091175;28;20067;-69
2023/01/08 09:02:05;;;;;;;96.82;48.33;;;;;;;0.88;100.00;93589.31;5090759;28;20052;-69
2023/01/08 09:04:33;;;;;;;83.47;44.47;;;;;;;0.96;100.00;93587.84;5091367;28;20048;-69
2023/01/08 09:07:00;;;;;;;72.60;37.90;;;;;;;0.90;100.00;93579.06;5091239;28;20048;-69
2023/01/08 09:09:27;;;;;;;87.70;43.60;;;;;;;1.05;100.00;93590.31;5090602;28;20098;-69
2023/01/08 09:11:54;;;;;;;97.13;48.08;;;;;;;1.12;100.00;93584.69;5090715;28;20544;-69
2023/01/08 09:14:22;;;;;;;97.45;47.65;;;;;;;1.26;100.00;93584.22;5091227;28;20044;-69
2023/01/08 09:16:49;;;;;;;103.30;49.20;;;;;;;1.32;100.00;93583.63;5091103;28;20437;-69
2023/01/08 09:19:16;;;;;;;99.97;50.50;;;;;;;1.55;100.00;93578.16;5090941;28;20052;-69
2023/01/08 09:21:42;;;;;;;104.13;51.88;;;;;;;1.76;100.00;93584.63;5078303;28;20048;-69
2023/01/08 09:24:10;;;;;;;105.13;51.75;;;;;;;1.94;100.00;93577.00;5090049;28;20125;-69
2023/01/08 09:26:37;;;;;;;103.80;48.67;;;;;;;2.05;100.00;93577.72;5090891;28;20371;-69
2023/01/08 09:29:04;;;;;;;98.85;47.65;;;;;;;2.18;100.00;93567.19;5090640;28;20117;-69
2023/01/08 09:31:34;;;;;;;89.32;40.92;;;;;;;2.34;100.00;93571.56;5090849;28;20044;-69
2023/01/08 09:34:00;;;;;;;84.00;41.33;;;;;;;2.39;100.00;93562.56;5090764;28;20056;-69
2023/01/08 09:36:27;;;;;;;71.05;39.85;;;;;;;2.61;100.00;93563.00;5090509;28;20052;-69
2023/01/08 09:38:54;;;;;;;66.78;35.58;;;;;;;2.40;100.00;93564.16;5090518;28;20565;-69
2023/01/08 09:41:25;;;;;;;60.95;32.78;;;;;;;2.16;100.00;93558.97;5090559;28;20044;-69
2023/01/08 09:43:54;;;;;;;56.55;32.95;;;;;;;2.07;100.00;93563.16;5090008;28;20043;-69
2023/01/08 09:46:24;;;;;;;56.17;30.63;;;;;;;2.31;100.00;93557.44;5090467;28;20044;-69
2023/01/08 09:48:55;;;;;;;46.65;24.48;;;;;;;2.18;100.00;93544.38;5090497;28;20052;-69
2023/01/08 09:51:23;;;;;;;46.22;25.70;;;;;;;2.28;100.00;93547.63;5090201;28;20047;-69
2023/01/08 09:53:55;;;;;;;52.78;27.75;;;;;;;2.30;100.00;93539.88;5090084;28;20051;-69
2023/01/08 09:56:22;;;;;;;54.63;28.08;;;;;;;2.27;100.00;93531.59;5090398;28;20052;-69
2023/01/08 09:58:51;;;;;;;47.40;25.42;;;;;;;2.36;100.00;93531.66;5089812;28;20040;-69
2023/01/08 10:01:21;;;;;;;40.97;22.45;;;;;;;2.42;100.00;93528.53;5090340;28;20052;-69
2023/01/08 10:03:51;;;;;;;45.42;23.10;;;;;;;2.62;100.00;93526.53;5089589;28;20495;-69
2023/01/08 10:06:19;;;;;;;31.95;19.35;;;;;;;2.69;100.00;93515.78;5090207;28;20052;-69
2023/01/08 10:08:46;;;;;;;35.95;20.60;;;;;;;2.70;100.00;93528.31;5089468;28;20082;-69
2023/01/08 10:11:15;;;;;;;41.95;22.10;;;;;;;2.76;100.00;93522.63;5089476;28;20656;-69
2023/01/08 10:13:46;;;;;;;48.60;21.52;;;;;;;2.94;100.00;93520.00;5076462;28;20048;-68
2023/01/08 10:16:23;;;;;;;45.90;20.88;;;;;;;3.00;100.00;93523.63;5089988;28;20393;-69
2023/01/08 10:18:49;;;;;;;50.72;21.30;;;;;;;3.01;100.00;93520.16;5089895;28;20492;-69
2023/01/08 10:21:18;;;;;;;43.38;19.70;;;;;;;3.14;100.00;93511.31;5088863;28;20048;-69
2023/01/08 10:23:49;;;;;;;39.28;18.92;;;;;;;3.13;100.00;93505.41;5089494;28;20056;-69
2023/01/08 10:26:25;;;;;;;46.22;20.45;;;;;;;3.17;100.00;93505.91;5089781;28;20052;-69
2023/01/08 10:28:52;;;;;;;;;;;;;;;3.24;100.00;93501.78;5090023;28;20110;-69
2023/01/08 10:31:19;;;;;;;45.00;21.83;;;;;;;3.37;100.00;93495.47;5089316;28;19920;-70
2023/01/08 10:33:47;;;;;;;83.53;34.00;;;;;;;3.51;100.00;93494.03;5089404;28;20458;-70
2023/01/08 10:36:17;;;;;;;46.45;25.75;;;;;;;3.58;100.00;93495.78;5089591;28;20044;-69
2023/01/08 10:38:59;;;;;;;57.97;26.98;;;;;;;3.72;100.00;93491.00;5089634;28;20040;-69
2023/01/08 10:41:27;;;;;;;56.58;26.80;;;;;;;3.75;100.00;93477.97;5077826;28;20048;-69
2023/01/08 10:43:58;;;;;;;49.50;28.00;;;;;;;3.90;100.00;93474.78;5089319;28;20052;-70
2023/01/08 10:46:28;;;;;;;49.85;27.95;;;;;;;3.96;100.00;93477.47;5088896;28;20571;-69
2023/01/08 10:48:57;;;;;;;54.38;28.08;;;;;;;4.28;100.00;93467.38;5089121;28;20479;-69
2023/01/08 10:51:25;;;;;;;47.80;25.95;;;;;;;4.28;100.00;93469.91;5089150;28;20412;-69
2023/01/08 10:53:55;;;;;;;56.53;28.13;;;;;;;4.54;100.00;93463.78;5088999;28;20104;-69
2023/01/08 10:56:24;;;;;;;48.03;24.15;;;;;;;4.70;100.00;93467.19;5089294;28;20052;-69
2023/01/08 10:58:52;;;;;;;43.28;23.58;;;;;;;4.77;100.00;93463.03;5088839;28;20048;-69
2023/01/08 11:01:23;;;;;;;43.42;23.85;;;;;;;4.94;100.00;93459.44;5089304;28;20048;-69
2023/01/08 11:03:51;;;;;;;45.17;23.05;;;;;;;5.07;100.00;93461.44;5088736;28;20040;-69
2023/01/08 11:06:22;;;;;;;44.72;23.88;;;;;;;5.28;100.00;93461.78;5088928;28;20092;-69
2023/01/08 11:08:55;;;;;;;42.58;23.00;;;;;;;5.31;100.00;93461.41;5089068;28;20043;-69
2023/01/08 11:11:23;;;;;;;43.92;24.42;;;;;;;5.37;100.00;93452.31;5089252;28;20047;-69
2023/01/08 11:13:58;;;;;;;48.20;24.92;;;;;;;5.41;100.00;93467.06;5088336;28;20093;-70